Latest Weather Observations for Hughenden

IDQ60801

Issued at 9:32 am EST Friday 6 May 2016 (issued every 30 minutes, with the page automatically refreshed every 10 minutes)

About weather observations | Map of weather stations | Latest weather observations for QLD | Other Formats
Station Details ID: 030022 Name: HUGHENDEN AIRPORT Lat: -20.82 Lon: 144.23 Height: 316.4 m
Data from the previous 72 hours. | See also: Recent months at Hughenden
Date/Time
EST
Temp
°C
App
Temp
°C
Dew
Point
Rel
Hum
%
Delta-T
°C
Wind Press
QNH
hPa
Press
MSL
hPa
Rain
since 9 am
mm
Dir
 
Spd
km/h
Gust
km/h
Spd
kts
Gust
kts
06/09:30am 27.1 25.1 16.4 52 6.7 NE 22 30 12 16 1016.8 1015.6 0.0
06/09:00am 26.0 24.5 16.8 57 5.8 NE 20 28 11 15 1016.5 1015.3 0.0
06/08:30am 24.8 23.5 16.8 61 5.0 NE 19 26 10 14 1016.3 1015.1 0.0
06/08:00am 24.1 24.0 16.9 64 4.5 ENE 13 20 7 11 1016.2 1015.0 0.0
06/07:30am 23.5 23.0 16.8 66 4.2 ENE 15 19 8 10 1015.8 1014.6 0.0
06/07:00am 23.2 23.0 16.7 67 4.0 ENE 13 19 7 10 1015.4 1014.2 0.0
06/06:30am 23.3 22.7 16.6 66 4.2 ENE 15 19 8 10 1015.1 1013.9 0.0
06/06:00am 23.2 22.5 16.3 65 4.3 ENE 15 17 8 9 1014.6 1013.4 0.0
06/05:30am 23.2 22.7 16.0 64 4.4 ENE 13 17 7 9 1014.4 1013.2 0.0
06/05:00am 23.4 22.8 15.7 62 4.7 ENE 13 17 7 9 1014.1 1012.9 0.0
06/04:30am 23.7 23.1 15.7 61 4.9 ENE 13 17 7 9 1014.1 1012.9 0.0
06/04:00am 23.9 23.6 15.4 59 5.2 ENE 11 15 6 8 1013.9 1012.6 0.0
06/03:30am 24.4 23.8 15.6 58 5.4 ENE 13 17 7 9 1013.9 1012.6 0.0
06/03:00am 24.6 23.8 15.2 55 5.7 ENE 13 15 7 8 1013.9 1012.6 0.0
06/02:30am 25.0 24.8 15.6 56 5.8 NE 11 15 6 8 1014.1 1012.9 0.0
06/02:00am 25.4 25.5 15.4 54 6.1 NE 9 15 5 8 1014.2 1013.0 0.0
06/01:30am 25.9 25.1 15.0 51 6.6 ENE 13 15 7 8 1014.5 1013.3 0.0
06/01:00am 26.3 25.5 15.0 49 6.9 ENE 13 17 7 9 1014.5 1013.3 0.0
06/12:30am 26.7 25.4 14.8 48 7.3 ENE 15 20 8 11 1014.8 1013.6 0.0
06/12:00am 26.9 25.2 14.6 46 7.5 ENE 17 20 9 11 1015.0 1013.8 0.0
 
Date/Time
EST
Temp
°C
App
Temp
°C
Dew
Point
Rel
Hum
%
Delta-T
°C
Wind Press
QNH
hPa
Press
MSL
hPa
Rain
since 9 am
mm
Dir
 
Spd
km/h
Gust
km/h
Spd
kts
Gust
kts
05/11:30pm 27.4 26.1 14.8 46 7.7 E 15 20 8 11 1015.4 1014.2 0.0
05/11:00pm 27.2 26.6 14.6 46 7.7 E 11 15 6 8 1015.5 1014.3 0.0
05/10:30pm 26.8 26.1 14.2 46 7.6 ESE 11 13 6 7 1015.3 1014.1 0.0
05/10:00pm 27.1 25.8 13.8 44 8.0 ESE 13 15 7 8 1015.3 1014.1 0.0
05/09:30pm 27.7 26.3 13.3 41 8.6 ESE 13 15 7 8 1015.3 1014.1 0.0
05/09:00pm 28.3 27.2 13.0 39 9.1 ESE 11 17 6 9 1015.3 1014.1 0.0
05/08:30pm 29.1 27.5 12.9 37 9.7 ESE 13 19 7 10 1015.0 1013.8 0.0
05/08:00pm 29.6 27.9 12.5 35 10.2 ESE 13 17 7 9 1014.7 1013.5 0.0
05/07:30pm 30.1 27.7 12.5 34 10.5 ESE 17 20 9 11 1014.2 1013.0 0.0
05/07:00pm 29.9 28.5 12.3 33 10.5 ESE 11 13 6 7 1013.8 1012.5 0.0
05/06:30pm 30.2 28.9 12.6 34 10.5 SE 11 19 6 10 1013.6 1012.3 0.0
05/06:00pm 30.8 28.4 12.7 33 10.9 ESE 17 24 9 13 1013.1 1011.9 0.0
05/05:30pm 31.7 28.7 12.5 31 11.5 ESE 20 26 11 14 1012.8 1011.6 0.0
05/05:00pm 32.2 29.2 12.4 30 11.9 ESE 20 28 11 15 1012.5 1011.3 0.0
05/04:30pm 33.3 33.1 10.6 25 13.3 ESE 2 15 1 8 1012.3 1011.1 0.0
05/04:00pm 33.4 31.8 10.1 24 13.6 S 9 13 5 7 1012.4 1011.2 0.0
05/03:30pm 33.1 31.7 11.0 26 13.0 SE 9 19 5 10 1012.3 1011.1 0.0
05/03:00pm 33.3 31.2 11.2 26 13.1 ENE 13 24 7 13 1012.4 1011.2 0.0
05/02:30pm 33.1 31.7 11.0 26 13.0 SE 9 20 5 11 1012.6 1011.4 0.0
05/02:00pm 33.8 33.3 12.2 27 13.0 ESE 6 17 3 9 1012.9 1011.7 0.0
05/01:30pm 33.5 32.2 11.4 26 13.1 ENE 9 17 5 9 1013.6 1012.3 0.0
05/01:00pm 32.7 30.8 11.8 28 12.5 E 13 20 7 11 1014.1 1012.9 0.0
05/12:30pm 32.4 31.7 13.1 31 11.7 NNE 9 13 5 7 1014.7 1013.5 0.0
05/12:00pm 32.0 31.2 12.8 31 11.6 NNE 9 19 5 10 1015.3 1014.1 0.0
05/11:30am 31.2 30.2 13.5 34 10.8 ENE 11 22 6 12 1015.8 1014.6 0.0
05/11:00am 30.8 30.6 14.8 37 9.9 ENE 9 19 5 10 1016.5 1015.3 0.0
05/10:30am 29.6 29.9 16.1 44 8.5 ENE 9 15 5 8 1017.2 1016.0 0.0
05/10:00am 29.2 28.9 16.4 46 8.1 ENE 13 19 7 10 1017.5 1016.3 0.0
05/09:30am 27.3 27.9 16.9 53 6.6 NNE 9 17 5 9 1017.5 1016.3 0.0
05/09:00am 26.2 26.1 17.0 57 5.8 NE 13 15 7 8 1017.4 1016.2 0.0
05/08:30am 25.2 26.2 16.9 60 5.2 ENE 7 11 4 6 1017.5 1016.3 0.0
05/08:00am 23.5 24.3 15.8 62 4.7 SE 6 7 3 4 1017.2 1016.0 0.0
05/07:30am 22.2 23.0 15.8 67 3.9 ESE 6 7 3 4 1016.9 1015.7 0.0
05/07:00am 19.7 20.7 14.3 71 3.2 SE 2 7 1 4 1016.5 1015.3 0.0
05/06:30am 19.4 18.9 13.8 70 3.3 SE 9 9 5 5 1016.2 1015.0 0.0
05/06:00am 19.4 19.2 12.9 66 3.7 SSE 6 7 3 4 1015.9 1014.7 0.0
05/05:30am 20.3 20.2 14.0 67 3.7 E 7 9 4 5 1015.5 1014.3 0.0
05/05:00am 20.7 20.7 13.6 64 4.1 ESE 6 7 3 4 1015.5 1014.3 0.0
05/04:30am 21.2 21.3 13.9 63 4.3 SSE 6 7 3 4 1015.3 1014.1 0.0
05/04:00am 21.6 23.0 14.5 64 4.2 CALM 0 0 0 0 1015.2 1014.0 0.0
05/03:30am 21.7 22.6 13.9 61 4.6 SE 2 6 1 3 1015.4 1014.2 0.0
05/03:00am 21.9 21.6 14.3 62 4.5 ESE 9 9 5 5 1015.4 1014.2 0.0
05/02:30am 22.0 21.6 14.1 61 4.7 ESE 9 11 5 6 1015.4 1014.2 0.0
05/02:00am 21.5 20.7 12.9 58 5.0 ESE 9 11 5 6 1015.6 1014.4 0.0
05/01:30am 21.6 20.7 12.5 56 5.2 ESE 9 11 5 6 1015.6 1014.4 0.0
05/01:00am 22.0 20.9 12.0 53 5.7 SE 9 9 5 5 1015.9 1014.7 0.0
05/12:30am 22.6 21.5 12.0 51 6.1 SE 9 9 5 5 1016.2 1015.0 0.0
05/12:00am 23.2 22.0 11.6 48 6.6 SE 9 9 5 5 1016.2 1015.0 0.0
 
Date/Time
EST
Temp
°C
App
Temp
°C
Dew
Point
Rel
Hum
%
Delta-T
°C
Wind Press
QNH
hPa
Press
MSL
hPa
Rain
since 9 am
mm
Dir
 
Spd
km/h
Gust
km/h
Spd
kts
Gust
kts
04/11:30pm 23.8 22.3 11.8 47 6.9 SE 11 11 6 6 1016.4 1015.2 0.0
04/11:00pm 23.6 21.9 11.3 46 7.0 ESE 11 13 6 7 1016.5 1015.3 0.0
04/10:30pm 23.5 22.3 11.5 47 6.8 ESE 9 11 5 6 1016.5 1015.3 0.0
04/10:00pm 23.7 22.7 11.1 45 7.1 SE 7 9 4 5 1016.4 1015.2 0.0
04/09:30pm 23.9 22.6 11.3 45 7.2 SSE 9 9 5 5 1016.4 1015.2 0.0
04/09:00pm 24.5 23.2 11.1 43 7.6 SE 9 11 5 6 1016.2 1015.0 0.0
04/08:30pm 24.9 23.6 11.1 42 7.9 SSE 9 11 5 6 1016.0 1014.8 0.0
04/08:00pm 25.4 24.1 11.2 41 8.1 S 9 11 5 6 1015.7 1014.5 0.0
04/07:30pm 26.5 25.2 11.4 39 8.7 SE 9 11 5 6 1015.4 1014.2 0.0
04/07:00pm 27.1 25.9 11.6 38 9.0 SE 9 11 5 6 1015.0 1013.8 0.0
04/06:30pm 27.9 26.5 11.0 35 9.7 SSE 9 9 5 5 1014.6 1013.4 0.0
04/06:00pm 28.8 27.4 10.9 33 10.3 SE 9 11 5 6 1014.3 1013.1 0.0
04/05:30pm 29.9 28.9 10.9 31 11.0 SE 7 9 4 5 1014.1 1012.9 0.0
04/05:00pm 30.6 29.1 10.5 29 11.6 ESE 9 15 5 8 1013.7 1012.4 0.0
04/04:30pm 30.8 29.9 10.7 29 11.7 SE 6 15 3 8 1013.7 1012.4 0.0
04/04:00pm 30.8 29.3 10.7 29 11.7 SSE 9 17 5 9 1013.7 1012.4 0.0
04/03:30pm 30.6 29.1 10.5 29 11.6 S 9 13 5 7 1013.9 1012.6 0.0
04/03:00pm 31.0 28.8 10.9 29 11.7 SSE 13 22 7 12 1014.0 1012.8 0.0
04/02:30pm 31.7 30.9 11.0 28 12.1 SE 6 13 3 7 1014.1 1012.9 0.0
04/02:00pm 31.2 29.5 11.1 29 11.8 SE 11 20 6 11 1014.4 1013.2 0.0
04/01:30pm 30.2 29.1 10.7 30 11.3 ENE 7 15 4 8 1014.8 1013.6 0.0
04/01:00pm 30.1 28.1 11.6 32 10.9 E 13 20 7 11 1015.4 1014.2 0.0
04/12:30pm 29.2 27.0 12.2 35 10.1 SE 15 24 8 13 1016.0 1014.8 0.0
04/12:00pm 29.6 28.2 13.4 37 9.8 ESE 13 20 7 11 1016.3 1015.1 0.0
04/11:30am 28.4 26.1 13.1 39 9.1 SE 17 26 9 14 1016.8 1015.6 0.0
04/11:00am 27.8 25.5 13.0 40 8.8 SE 17 22 9 12 1017.3 1016.1 0.0
04/10:30am 27.9 25.7 13.4 40 8.7 S 17 22 9 12 1017.5 1016.3 0.0
04/10:00am 26.9 24.6 12.9 42 8.3 S 17 24 9 13 1017.8 1016.6 0.0
04/09:30am 25.8 23.4 12.6 44 7.7 S 17 20 9 11 1018.0 1016.8 0.0
04/09:00am 25.5 23.4 12.4 44 7.6 S 15 19 8 10 1017.7 1016.5 0.2
04/08:30am 24.9 23.8 13.1 48 7.0 SSE 11 13 6 7 1017.4 1016.2 0.2
04/08:00am 23.8 22.4 12.1 48 6.7 SSE 11 17 6 9 1017.2 1016.0 0.2
04/07:30am 23.4 22.0 12.1 49 6.5 S 11 15 6 8 1017.0 1015.8 0.2
04/07:00am 23.6 22.3 12.6 50 6.4 E 11 13 6 7 1016.5 1015.3 0.2
04/06:30am 23.3 22.7 12.3 50 6.3 SE 7 9 4 5 1016.4 1015.2 0.2
04/06:00am 23.6 21.8 12.0 48 6.7 SSE 13 19 7 10 1016.0 1014.8 0.0
04/05:30am 23.9 22.9 13.4 51 6.2 S 11 13 6 7 1015.6 1014.4 0.0
04/05:00am 24.2 23.6 13.4 51 6.4 S 9 11 5 6 1015.1 1013.9 0.0
04/04:30am 24.2 23.6 13.4 51 6.4 SE 9 13 5 7 1014.7 1013.5 0.0
04/04:00am 24.2 23.6 13.4 51 6.4 SSE 9 9 5 5 1015.0 1013.8 0.0
04/03:30am 24.7 24.0 13.3 49 6.7 E 9 11 5 6 1014.8 1013.6 0.0
04/03:00am 25.0 24.9 13.2 48 7.0 SE 6 7 3 4 1015.0 1013.8 0.0
04/02:30am 25.3 24.7 13.5 48 7.0 SSW 9 15 5 8 1015.4 1014.2 0.0
04/02:00am 25.5 26.6 13.4 47 7.2 CALM 0 0 0 0 1015.3 1014.1 0.0
04/01:30am 25.6 25.6 13.5 47 7.2 SSE 6 9 3 5 1015.4 1014.2 0.0
04/01:00am 25.8 24.9 13.6 47 7.3 ESE 11 15 6 8 1015.7 1014.5 0.0
04/12:30am 25.8 24.6 14.0 48 7.1 SSE 13 19 7 10 1016.3 1015.1 0.0
04/12:00am 26.0 24.5 14.1 47 7.2 SSE 15 20 8 11 1016.4 1015.2 0.0
 
Date/Time
EST
Temp
°C
App
Temp
°C
Dew
Point
Rel
Hum
%
Delta-T
°C
Wind Press
QNH
hPa
Press
MSL
hPa
Rain
since 9 am
mm
Dir
 
Spd
km/h
Gust
km/h
Spd
kts
Gust
kts
03/11:30pm 26.0 23.8 14.5 49 7.0 SSE 19 33 10 18 1016.5 1015.3 0.0
03/11:00pm 26.3 22.6 13.8 46 7.5 SSE 26 37 14 20 1016.5 1015.3 0.0
03/10:30pm 27.1 23.9 13.1 42 8.3 S 22 33 12 18 1016.4 1015.2 0.0
03/10:00pm 27.6 23.2 12.8 40 8.8 S 28 41 15 22 1016.4 1015.2 0.0
03/09:30pm 28.1 24.0 12.8 38 9.1 S 26 37 14 20 1016.1 1014.9 0.0
03/09:00pm 28.5 24.1 12.8 38 9.3 S 28 37 15 20 1015.7 1014.5 0.0
03/08:31pm 28.9 24.1 12.8 37 9.6 S 30 48 16 26 1015.3 1014.1 0.0
03/08:30pm 29.0 23.8 12.8 36 9.7 S 32 48 17 26 1015.3 1014.1 0.0
03/08:28pm 29.0 24.2 12.8 36 9.7 S 30 48 16 26 1015.3 1014.1 0.0
03/08:00pm 29.9 24.8 11.9 33 10.6 S 30 44 16 24 1014.8 1013.6 0.0
03/07:30pm 30.6 24.8 11.5 30 11.2 S 33 54 18 29 1014.1 1012.9 0.0
03/07:22pm 30.8 25.9 11.2 30 11.5 SSW 28 54 15 29 1013.8 1012.5 0.0
03/07:00pm 31.6 28.2 11.4 29 11.9 SSW 20 30 11 16 1013.2 1012.0 0.0
03/06:30pm 32.1 28.7 11.3 28 12.3 SSW 20 30 11 16 1012.7 1011.5 0.0
03/06:00pm 31.9 29.0 12.2 30 11.8 SSW 19 24 10 13 1012.4 1011.2 0.0
03/05:30pm 32.9 29.7 11.4 27 12.8 SSW 19 26 10 14 1011.9 1010.7 0.0
03/05:00pm 33.4 30.8 11.9 27 12.9 SSW 17 24 9 13 1011.8 1010.6 0.0
03/04:30pm 33.8 31.8 11.6 26 13.3 SW 13 19 7 10 1011.4 1010.2 0.0
03/04:00pm 34.2 31.4 11.4 25 13.6 SW 17 22 9 12 1011.3 1010.1 0.0
03/03:30pm 34.3 31.5 11.4 25 13.7 SW 17 22 9 12 1011.4 1010.2 0.0
03/03:00pm 34.3 32.5 12.0 25 13.4 SW 13 26 7 14 1011.5 1010.3 0.0
03/02:30pm 34.5 32.4 11.0 24 13.9 W 13 26 7 14 1011.6 1010.4 0.0
03/02:00pm 33.8 32.8 11.0 25 13.5 SW 7 17 4 9 1012.0 1010.8 0.0
03/01:30pm 35.3 34.5 11.7 24 14.2 N 7 15 4 8 1012.3 1011.1 0.0
03/01:00pm 34.0 34.2 11.8 26 13.3 N 2 9 1 5 1012.7 1011.5 0.0
03/12:30pm 33.6 32.7 11.5 26 13.2 NNW 7 13 4 7 1013.2 1012.0 0.0
03/12:00pm 33.7 33.4 12.7 28 12.7 NNE 6 13 3 7 1013.7 1012.4 0.0
03/11:30am 32.6 31.4 12.8 30 12.0 NNW 11 17 6 9 1014.1 1012.9 0.0
03/11:00am 31.5 30.7 12.8 32 11.3 NNW 9 17 5 9 1014.6 1013.4 0.0
03/10:30am 30.5 30.3 12.9 34 10.6 NNW 6 13 3 7 1015.0 1013.8 0.0
03/10:00am 29.8 30.1 13.5 36 9.9 NE 4 9 2 5 1015.5 1014.3 0.0

Other Formats:

Comma delimited format used in spreadsheet applications
http://www.bom.gov.au/fwo/IDQ60801/IDQ60801.94343.axf

JavaScript Object Notation format (JSON) in row-major order
http://www.bom.gov.au/fwo/IDQ60801/IDQ60801.94343.json